createdAt,value
2018-03-14T00:01:02.051Z,100497.22
2018-03-14T00:03:29.681Z,100493.30
2018-03-14T00:05:57.424Z,100503.58
2018-03-14T00:08:25.085Z,100501.87
2018-03-14T00:10:52.741Z,100510.02
2018-03-14T00:13:20.360Z,100518.15
2018-03-14T00:15:48.021Z,100514.71
2018-03-14T00:18:15.644Z,100523.25
2018-03-14T00:20:43.321Z,100520.66
2018-03-14T00:23:10.971Z,100526.16
2018-03-14T00:25:38.601Z,100521.87
2018-03-14T00:28:06.257Z,100529.57
2018-03-14T00:30:33.974Z,100527.35
2018-03-14T00:33:01.721Z,100525.22
2018-03-14T00:35:29.374Z,100526.50
2018-03-14T00:37:57.033Z,100530.86
2018-03-14T00:40:24.713Z,100529.48
2018-03-14T00:42:52.477Z,100526.48
2018-03-14T00:45:20.146Z,100532.92
2018-03-14T00:47:47.777Z,100528.19
2018-03-14T00:50:15.464Z,100532.05
2018-03-14T00:52:43.121Z,100526.92
2018-03-14T00:55:10.789Z,100533.36
2018-03-14T00:57:38.548Z,100535.92
2018-03-14T01:00:06.212Z,100531.69
2018-03-14T01:02:33.880Z,100538.15
2018-03-14T01:05:01.540Z,100534.80
2018-03-14T01:07:29.200Z,100541.23
2018-03-14T01:09:56.968Z,100543.39
2018-03-14T01:12:24.595Z,100542.50
2018-03-14T01:14:52.260Z,100541.58
2018-03-14T01:17:19.896Z,100541.93
2018-03-14T01:19:47.551Z,100542.34
2018-03-14T01:22:15.279Z,100544.04
2018-03-14T01:24:43.046Z,100546.98
2018-03-14T01:27:10.680Z,100549.98
2018-03-14T01:29:38.341Z,100546.98
2018-03-14T01:32:06.033Z,100548.25
2018-03-14T01:34:33.801Z,100540.98
2018-03-14T01:37:01.464Z,100548.34
2018-03-14T01:39:29.126Z,100552.30
2018-03-14T01:41:56.760Z,100556.22
2018-03-14T01:44:24.823Z,100553.55
2018-03-14T01:46:52.477Z,100557.86
2018-03-14T01:49:20.192Z,100559.94
2018-03-14T01:51:47.855Z,100556.51
2018-03-14T01:54:15.493Z,100566.34
2018-03-14T01:56:43.175Z,100565.84
2018-03-14T01:59:10.840Z,100566.70
2018-03-14T02:01:38.504Z,100569.26
2018-03-14T02:04:06.132Z,100570.11
2018-03-14T02:06:33.796Z,100573.53
2018-03-14T02:09:01.428Z,100573.05
2018-03-14T02:11:29.104Z,100571.27
2018-03-14T02:13:56.821Z,100580.27
2018-03-14T02:16:24.448Z,100575.52
2018-03-14T02:18:52.105Z,100577.66
2018-03-14T02:21:19.749Z,100581.52
2018-03-14T02:23:47.406Z,100588.38
2018-03-14T02:26:15.128Z,100587.45
2018-03-14T02:28:42.852Z,100589.08
2018-03-14T02:31:10.476Z,100592.08
2018-03-14T02:33:38.212Z,100605.27
2018-03-14T02:36:05.843Z,100603.89
2018-03-14T02:38:33.508Z,100608.62
2018-03-14T02:41:01.152Z,100609.47
2018-03-14T02:43:28.885Z,100612.45
2018-03-14T02:45:56.476Z,100614.52
2018-03-14T02:48:24.089Z,100616.14
2018-03-14T02:50:51.751Z,100615.70
2018-03-14T02:53:19.932Z,100623.42
2018-03-14T02:55:47.564Z,100622.98
2018-03-14T02:58:15.177Z,100622.50
2018-03-14T03:00:42.817Z,100634.47
2018-03-14T03:03:10.427Z,100634.39
2018-03-14T03:05:38.061Z,100632.77
2018-03-14T03:08:05.698Z,100633.64
2018-03-14T03:10:33.335Z,100639.62
2018-03-14T03:13:00.945Z,100640.03
2018-03-14T03:15:28.579Z,100646.38
2018-03-14T03:17:56.201Z,100649.31
2018-03-14T03:20:23.858Z,100655.28
2018-03-14T03:22:51.472Z,100657.86
2018-03-14T03:25:19.140Z,100657.37
2018-03-14T03:27:46.777Z,100658.19
2018-03-14T03:30:14.455Z,100657.60
2018-03-14T03:32:42.088Z,100666.66
2018-03-14T03:35:09.788Z,100667.45
2018-03-14T03:37:37.424Z,100673.30
2018-03-14T03:40:05.116Z,100680.91
2018-03-14T03:42:32.752Z,100679.91
2018-03-14T03:45:00.364Z,100681.55
2018-03-14T03:47:28.005Z,100683.17
2018-03-14T03:49:55.656Z,100686.94
2018-03-14T03:52:23.297Z,100689.42
2018-03-14T03:54:50.984Z,100692.31
2018-03-14T03:57:18.621Z,100698.65
2018-03-14T03:59:46.273Z,100692.53
2018-03-14T04:02:13.977Z,100697.15
2018-03-14T04:04:41.592Z,100703.52
2018-03-14T04:07:09.205Z,100706.90
2018-03-14T04:09:36.847Z,100709.81
2018-03-14T04:12:04.461Z,100713.61
2018-03-14T04:14:32.101Z,100714.01
2018-03-14T04:16:59.717Z,100719.14
2018-03-14T04:19:27.411Z,100718.30
2018-03-14T04:21:55.025Z,100723.89
2018-03-14T04:24:22.740Z,100717.84
2018-03-14T04:26:50.356Z,100719.60
2018-03-14T04:29:18.064Z,100724.72
2018-03-14T04:31:45.677Z,100731.59
2018-03-14T04:34:13.290Z,100732.42
2018-03-14T04:36:40.924Z,100739.26
2018-03-14T04:39:08.532Z,100735.83
2018-03-14T04:41:36.169Z,100742.17
2018-03-14T04:44:03.785Z,100745.61
2018-03-14T04:46:31.421Z,100741.73
2018-03-14T04:48:59.028Z,100739.97
2018-03-14T04:51:26.669Z,100742.15
2018-03-14T04:53:54.384Z,100745.95
2018-03-14T04:56:22.045Z,100745.10
2018-03-14T04:58:49.699Z,100748.50
2018-03-14T05:01:17.348Z,100751.06
2018-03-14T05:03:45.032Z,100751.50
2018-03-14T05:06:12.675Z,100755.37
2018-03-14T05:08:40.292Z,100760.04
2018-03-14T05:11:07.905Z,100759.20
2018-03-14T05:13:35.545Z,100762.63
2018-03-14T05:16:03.160Z,100763.41
2018-03-14T05:18:30.800Z,100764.64
2018-03-14T05:20:58.408Z,100771.86
2018-03-14T05:23:26.040Z,100771.41
2018-03-14T05:25:53.652Z,100779.96
2018-03-14T05:28:21.352Z,100785.89
2018-03-14T05:30:48.976Z,100787.66
2018-03-14T05:33:16.677Z,100783.38
2018-03-14T05:35:44.293Z,100791.54
2018-03-14T05:38:11.929Z,100796.27
2018-03-14T05:40:39.535Z,100802.73
2018-03-14T05:43:07.169Z,100801.04
2018-03-14T05:45:34.781Z,100805.40
2018-03-14T05:48:02.432Z,100806.20
2018-03-14T05:50:30.045Z,100813.13
2018-03-14T05:52:57.677Z,100810.60
2018-03-14T05:55:25.602Z,100815.28
2018-03-14T05:57:53.212Z,100820.85
2018-03-14T06:00:20.857Z,100813.15
2018-03-14T06:02:48.469Z,100817.44
2018-03-14T06:05:16.104Z,100825.95
2018-03-14T06:07:43.712Z,100829.83
2018-03-14T06:10:11.345Z,100827.61
2018-03-14T06:12:38.963Z,100827.67
2018-03-14T06:15:06.628Z,100833.23
2018-03-14T06:17:34.292Z,100838.28
2018-03-14T06:20:01.958Z,100845.98
2018-03-14T06:22:29.572Z,100843.40
2018-03-14T06:24:57.190Z,100848.06
2018-03-14T06:27:24.835Z,100850.20
2018-03-14T06:29:52.481Z,100852.33
2018-03-14T06:32:20.177Z,100851.89
2018-03-14T06:34:47.842Z,100855.29
2018-03-14T06:37:15.482Z,100866.87
2018-03-14T06:39:43.094Z,100875.09
2018-03-14T06:42:10.732Z,100876.38
2018-03-14T06:44:38.340Z,100877.14
2018-03-14T06:47:05.972Z,100883.16
2018-03-14T06:49:33.589Z,100881.00
2018-03-14T06:52:01.221Z,100890.84
2018-03-14T06:54:28.836Z,100903.78
2018-03-14T06:56:56.486Z,100901.23
2018-03-14T06:59:35.936Z,100911.09
2018-03-14T07:02:15.461Z,100908.63
2018-03-14T07:05:06.732Z,100914.17
2018-03-14T07:07:34.368Z,100918.36
2018-03-14T07:10:01.977Z,100926.48
2018-03-14T07:12:29.612Z,100928.49
2018-03-14T07:14:57.225Z,100931.83
2018-03-14T07:17:24.922Z,100930.11
2018-03-14T07:19:52.517Z,100937.36
2018-03-14T07:22:20.228Z,100942.92
2018-03-14T07:24:47.865Z,100946.34
2018-03-14T07:27:15.553Z,100952.30
2018-03-14T07:29:43.206Z,100953.95
2018-03-14T07:32:10.822Z,100952.94
2018-03-14T07:34:38.453Z,100959.36
2018-03-14T07:37:06.101Z,100957.59
2018-03-14T07:39:33.760Z,100964.80
2018-03-14T07:42:01.431Z,100972.13
2018-03-14T07:44:29.090Z,100974.23
2018-03-14T07:46:56.754Z,100974.23
2018-03-14T07:49:24.421Z,100978.16
2018-03-14T07:51:52.032Z,100979.09
2018-03-14T07:54:19.744Z,100970.13
2018-03-14T07:56:47.360Z,100976.21
2018-03-14T07:59:15.011Z,100981.04
2018-03-14T08:01:42.625Z,100984.05
2018-03-14T08:04:10.238Z,100985.87
2018-03-14T08:06:37.877Z,100988.05
2018-03-14T08:09:05.492Z,100994.11
2018-03-14T08:11:33.180Z,100991.23
2018-03-14T08:14:00.860Z,100993.92
2018-03-14T08:16:28.501Z,100998.70
2018-03-14T08:18:56.112Z,100998.38
2018-03-14T08:21:23.756Z,101001.81
2018-03-14T08:23:51.387Z,101002.17
2018-03-14T08:26:19.029Z,101003.45
2018-03-14T08:28:46.641Z,101012.22
2018-03-14T08:31:14.278Z,101015.32
2018-03-14T08:33:41.892Z,101019.63
2018-03-14T08:36:09.508Z,101023.03
2018-03-14T08:38:37.139Z,101022.92
2018-03-14T08:41:04.755Z,101020.80
2018-03-14T08:43:32.489Z,101019.92
2018-03-14T08:46:00.144Z,101024.63
2018-03-14T08:48:27.775Z,101030.17
2018-03-14T08:50:55.384Z,101022.88
2018-03-14T08:53:23.025Z,101031.40
2018-03-14T08:55:50.689Z,101026.27
2018-03-14T08:58:18.319Z,101031.07
2018-03-14T09:00:46.018Z,101035.02
2018-03-14T09:03:13.676Z,101036.39
2018-03-14T09:05:41.292Z,101034.34
2018-03-14T09:08:08.939Z,101039.94
2018-03-14T09:10:36.567Z,101038.65
2018-03-14T09:13:04.232Z,101047.20
2018-03-14T09:15:31.897Z,101049.34
2018-03-14T09:17:59.549Z,101043.45
2018-03-14T09:20:27.224Z,101049.92
2018-03-14T09:22:54.836Z,101048.72
2018-03-14T09:25:22.550Z,101054.81
2018-03-14T09:27:50.161Z,101055.86
2018-03-14T09:30:17.800Z,101055.93
2018-03-14T09:32:45.436Z,101061.48
2018-03-14T09:35:13.072Z,101059.02
2018-03-14T09:37:40.680Z,101065.95
2018-03-14T09:40:08.413Z,101058.34
2018-03-14T09:42:36.030Z,101067.87
2018-03-14T09:45:04.667Z,101065.09
2018-03-14T09:47:32.324Z,101072.78
2018-03-14T09:49:59.961Z,101067.65
2018-03-14T09:52:27.648Z,101069.31
2018-03-14T09:54:55.276Z,101070.91
2018-03-14T09:57:22.981Z,101071.76
2018-03-14T09:59:50.634Z,101068.75
2018-03-14T10:02:18.298Z,101074.43
2018-03-14T10:04:45.973Z,101077.66
2018-03-14T10:07:13.607Z,101076.50
2018-03-14T10:09:41.216Z,101079.64
2018-03-14T10:12:08.852Z,101080.17
2018-03-14T10:14:36.520Z,101084.47
2018-03-14T10:17:04.161Z,101085.39
2018-03-14T10:19:31.846Z,101087.20
2018-03-14T10:21:59.496Z,101091.66
2018-03-14T10:24:27.121Z,101092.11
2018-03-14T10:26:54.834Z,101094.27
2018-03-14T10:29:22.448Z,101098.74
2018-03-14T10:31:50.155Z,101100.20
2018-03-14T10:34:17.824Z,101098.22
2018-03-14T10:36:45.485Z,101107.87
2018-03-14T10:39:13.098Z,101108.06
2018-03-14T10:41:40.805Z,101110.86
2018-03-14T10:44:08.412Z,101116.10
2018-03-14T10:46:36.068Z,101109.83
2018-03-14T10:49:03.689Z,101112.85
2018-03-14T10:51:31.300Z,101111.69
2018-03-14T10:53:58.936Z,101112.73
2018-03-14T10:56:26.548Z,101110.28
2018-03-14T10:58:54.240Z,101118.53
2018-03-14T11:01:21.853Z,101122.78
2018-03-14T11:03:49.497Z,101120.55
2018-03-14T11:06:17.136Z,101117.46
2018-03-14T11:08:46.433Z,101120.52
2018-03-14T11:11:14.040Z,101124.77
2018-03-14T11:13:41.679Z,101117.12
2018-03-14T11:16:09.410Z,101119.09
2018-03-14T11:18:37.049Z,101126.80
2018-03-14T11:21:04.745Z,101131.59
2018-03-14T11:23:32.401Z,101134.17
2018-03-14T11:26:00.013Z,101130.33
2018-03-14T11:28:27.692Z,101129.91
2018-03-14T11:30:55.306Z,101131.28
2018-03-14T11:33:22.921Z,101134.36
2018-03-14T11:35:50.547Z,101139.02
2018-03-14T11:38:18.180Z,101139.08
2018-03-14T11:40:45.816Z,101138.14
2018-03-14T11:43:13.428Z,101137.83
2018-03-14T11:45:41.164Z,101139.97
2018-03-14T11:48:08.833Z,101142.28
2018-03-14T11:50:36.496Z,101141.45
2018-03-14T11:53:04.108Z,101145.30
2018-03-14T11:55:31.749Z,101137.95
2018-03-14T11:57:59.376Z,101140.94
2018-03-14T12:00:27.013Z,101143.84
2018-03-14T12:02:54.632Z,101139.87
2018-03-14T12:05:22.264Z,101140.64
2018-03-14T12:07:49.937Z,101147.47
2018-03-14T12:10:17.590Z,101143.27
2018-03-14T12:12:45.248Z,101148.08
2018-03-14T12:15:12.917Z,101149.41
2018-03-14T12:17:40.552Z,101150.34
2018-03-14T12:20:08.241Z,101150.45
2018-03-14T12:22:35.906Z,101156.81
2018-03-14T12:25:03.521Z,101149.53
2018-03-14T12:27:31.157Z,101149.00
2018-03-14T12:29:58.812Z,101155.72
2018-03-14T12:32:26.649Z,101148.36
2018-03-14T12:34:54.260Z,101150.14
2018-03-14T12:37:21.974Z,101154.45
2018-03-14T12:39:49.588Z,101154.95
2018-03-14T12:42:17.223Z,101154.55
2018-03-14T12:44:44.858Z,101161.06
2018-03-14T12:47:12.549Z,101165.44
2018-03-14T12:49:40.144Z,101163.78
2018-03-14T12:52:07.801Z,101164.63
2018-03-14T12:54:35.521Z,101164.22
2018-03-14T12:57:03.132Z,101162.45
2018-03-14T12:59:30.764Z,101165.82
2018-03-14T13:01:58.385Z,101164.91
2018-03-14T13:04:26.021Z,101167.91
2018-03-14T13:06:53.732Z,101163.15
2018-03-14T13:09:21.360Z,101168.38
2018-03-14T13:11:49.001Z,101170.09
2018-03-14T13:14:16.716Z,101173.95
2018-03-14T13:16:44.384Z,101171.88
2018-03-14T13:19:12.014Z,101174.52
2018-03-14T13:21:39.624Z,101175.46
2018-03-14T13:24:07.358Z,101182.50
2018-03-14T13:26:34.972Z,101179.61
2018-03-14T13:29:02.706Z,101177.48
2018-03-14T13:31:30.359Z,101183.48
2018-03-14T13:33:57.991Z,101188.60
2018-03-14T13:36:25.605Z,101189.48
2018-03-14T13:38:53.262Z,101183.50
2018-03-14T13:41:20.912Z,101189.18
2018-03-14T13:43:48.573Z,101187.89
2018-03-14T13:46:16.212Z,101192.17
2018-03-14T13:48:43.825Z,101190.95
2018-03-14T13:51:11.467Z,101191.41
2018-03-14T13:53:39.081Z,101191.08
2018-03-14T13:56:06.789Z,101198.38
2018-03-14T13:58:34.448Z,101197.97
2018-03-14T14:01:02.108Z,101194.92
2018-03-14T14:03:29.752Z,101198.19
2018-03-14T14:05:57.385Z,101200.28
2018-03-14T14:08:24.996Z,101199.31
2018-03-14T14:10:52.629Z,101200.45
2018-03-14T14:13:20.248Z,101204.60
2018-03-14T14:15:47.980Z,101197.66
2018-03-14T14:18:15.644Z,101201.39
2018-03-14T14:20:43.252Z,101203.84
2018-03-14T14:23:10.893Z,101205.56
2018-03-14T14:25:38.508Z,101201.38
2018-03-14T14:28:06.194Z,101204.86
2018-03-14T14:30:33.880Z,101203.63
2018-03-14T14:33:01.508Z,101203.20
2018-03-14T14:35:29.180Z,101203.09
2018-03-14T14:37:56.818Z,101200.88
2018-03-14T14:40:24.513Z,101201.22
2018-03-14T14:42:52.152Z,101200.73
2018-03-14T14:45:19.833Z,101203.25
2018-03-14T14:47:47.472Z,101200.63
2018-03-14T14:50:15.758Z,101202.72
2018-03-14T14:52:43.511Z,101205.27
2018-03-14T14:55:11.133Z,101207.77
2018-03-14T14:57:38.865Z,101212.03
2018-03-14T15:00:06.476Z,101209.05
2018-03-14T15:02:34.194Z,101211.19
2018-03-14T15:05:01.801Z,101213.28
2018-03-14T15:07:29.407Z,101209.34
2018-03-14T15:09:57.037Z,101213.87
2018-03-14T15:12:24.644Z,101214.13
2018-03-14T15:14:52.397Z,101210.51
2018-03-14T15:17:20.065Z,101213.80
2018-03-14T15:19:47.730Z,101215.78
2018-03-14T15:22:15.400Z,101211.90
2018-03-14T15:24:43.253Z,101213.11
2018-03-14T15:27:10.980Z,101216.91
2018-03-14T15:29:38.609Z,101210.84
2018-03-14T15:32:06.242Z,101212.08
2018-03-14T15:34:34.045Z,101207.63
2018-03-14T15:37:01.668Z,101214.16
2018-03-14T15:39:29.311Z,101218.02
2018-03-14T15:41:56.916Z,101212.83
2018-03-14T15:44:24.561Z,101217.60
2018-03-14T15:46:52.221Z,101222.75
2018-03-14T15:49:19.894Z,101220.23
2018-03-14T15:51:47.549Z,101225.42
2018-03-14T15:54:15.157Z,101226.33
2018-03-14T15:56:42.866Z,101229.87
2018-03-14T15:59:10.537Z,101232.55
2018-03-14T16:01:38.165Z,101229.52
2018-03-14T16:04:05.775Z,101227.02
2018-03-14T16:06:33.411Z,101235.69
2018-03-14T16:09:01.018Z,101233.58
2018-03-14T16:11:28.645Z,101232.38
2018-03-14T16:13:56.248Z,101234.51
2018-03-14T16:16:23.964Z,101237.84
2018-03-14T16:18:51.564Z,101230.86
2018-03-14T16:21:19.193Z,101231.11
2018-03-14T16:23:46.803Z,101239.09
2018-03-14T16:26:14.423Z,101235.12
2018-03-14T16:28:42.076Z,101239.83
2018-03-14T16:31:09.733Z,101238.44
2018-03-14T16:33:37.345Z,101244.70
2018-03-14T16:36:05.061Z,101250.65
2018-03-14T16:38:32.689Z,101254.40
2018-03-14T16:41:00.289Z,101253.05
2018-03-14T16:43:27.917Z,101258.06
2018-03-14T16:45:55.525Z,101262.62
2018-03-14T16:48:23.155Z,101263.58
2018-03-14T16:50:50.781Z,101261.64
2018-03-14T16:53:18.413Z,101266.59
2018-03-14T16:55:46.056Z,101260.53
2018-03-14T16:58:13.726Z,101264.66
2018-03-14T17:00:41.334Z,101267.52
2018-03-14T17:03:08.961Z,101270.37
2018-03-14T17:05:36.571Z,101274.96
2018-03-14T17:08:04.268Z,101271.76
2018-03-14T17:10:31.872Z,101271.63
2018-03-14T17:12:59.496Z,101279.22
2018-03-14T17:15:27.284Z,101279.11
2018-03-14T17:17:54.914Z,101287.58
2018-03-14T17:20:22.561Z,101284.95
2018-03-14T17:22:50.252Z,101295.99
2018-03-14T17:25:17.903Z,101293.42
2018-03-14T17:27:45.530Z,101295.94
2018-03-14T17:30:13.242Z,101300.23
2018-03-14T17:32:40.908Z,101296.27
2018-03-14T17:35:08.518Z,101297.05
2018-03-14T17:37:36.176Z,101297.44
2018-03-14T17:40:03.912Z,101301.64
2018-03-14T17:42:31.551Z,101293.47
2018-03-14T17:44:59.176Z,101294.64
2018-03-14T17:47:26.776Z,101294.09
2018-03-14T17:49:54.420Z,101293.56
2018-03-14T17:52:22.028Z,101298.23
2018-03-14T17:54:49.757Z,101295.97
2018-03-14T17:57:17.408Z,101297.98
2018-03-14T17:59:45.042Z,101288.99
2018-03-14T18:02:12.743Z,101294.45
2018-03-14T18:04:40.369Z,101293.48
2018-03-14T18:07:07.977Z,101294.22
2018-03-14T18:09:35.645Z,101297.93
2018-03-14T18:12:03.297Z,101297.81
2018-03-14T18:14:30.940Z,101302.83
2018-03-14T18:16:58.584Z,101299.80
2018-03-14T18:19:26.282Z,101297.99
2018-03-14T18:21:54.238Z,101293.70
2018-03-14T18:24:21.854Z,101295.39
2018-03-14T18:26:49.484Z,101300.00
2018-03-14T18:29:17.101Z,101300.79
2018-03-14T18:31:45.007Z,101300.73
2018-03-14T18:34:12.768Z,101308.75
2018-03-14T18:36:40.441Z,101307.77
2018-03-14T18:39:08.045Z,101300.77
2018-03-14T18:41:35.760Z,101295.89
2018-03-14T18:44:03.369Z,101302.54
2018-03-14T18:46:31.001Z,101296.32
2018-03-14T18:48:58.608Z,101298.30
2018-03-14T18:51:26.236Z,101297.75
2018-03-14T18:53:53.851Z,101300.19
2018-03-14T18:56:21.536Z,101294.53
2018-03-14T18:58:49.146Z,101298.73
2018-03-14T19:01:16.798Z,101295.67
2018-03-14T19:03:44.401Z,101290.01
2018-03-14T19:06:12.081Z,101298.45
2018-03-14T19:08:39.749Z,101296.12
2018-03-14T19:11:07.409Z,101303.73
2018-03-14T19:13:35.072Z,101305.70
2018-03-14T19:16:02.685Z,101302.90
2018-03-14T19:18:30.324Z,101307.41
2018-03-14T19:20:57.961Z,101302.63
2018-03-14T19:23:25.630Z,101302.44
2018-03-14T19:25:53.300Z,101302.28
2018-03-14T19:28:21.145Z,101302.60
2018-03-14T19:30:48.781Z,101307.58
2018-03-14T19:33:16.440Z,101315.15
2018-03-14T19:35:44.109Z,101303.86
2018-03-14T19:38:11.717Z,101306.30
2018-03-14T19:40:39.370Z,101304.45
2018-03-14T19:43:07.028Z,101303.89
2018-03-14T19:45:34.690Z,101310.18
2018-03-14T19:48:02.348Z,101308.43
2018-03-14T19:50:30.028Z,101314.31
2018-03-14T19:52:57.645Z,101314.22
2018-03-14T19:55:25.341Z,101310.74
2018-03-14T19:57:52.958Z,101309.80
2018-03-14T20:00:20.594Z,101316.62
2018-03-14T20:02:48.196Z,101327.28
2018-03-14T20:05:15.889Z,101318.75
2018-03-14T20:07:43.510Z,101321.78
2018-03-14T20:10:11.145Z,101322.31
2018-03-14T20:12:38.777Z,101324.06
2018-03-14T20:15:06.546Z,101323.69
2018-03-14T20:17:34.204Z,101324.25
2018-03-14T20:20:01.814Z,101326.00
2018-03-14T20:22:29.448Z,101319.25
2018-03-14T20:24:57.060Z,101315.47
2018-03-14T20:27:24.757Z,101317.31
2018-03-14T20:29:52.368Z,101315.68
2018-03-14T20:32:20.012Z,101323.41
2018-03-14T20:34:47.620Z,101316.25
2018-03-14T20:37:15.301Z,101324.00
2018-03-14T20:39:42.922Z,101311.70
2018-03-14T20:42:10.624Z,101313.09
2018-03-14T20:44:38.236Z,101310.98
2018-03-14T20:47:05.958Z,101311.92
2018-03-14T20:49:33.621Z,101308.55
2018-03-14T20:52:01.269Z,101315.05
2018-03-14T20:54:28.944Z,101318.96
2018-03-14T20:56:56.581Z,101317.27
2018-03-14T20:59:24.203Z,101319.89
2018-03-14T21:01:51.864Z,101316.11
2018-03-14T21:04:19.501Z,101320.48
2018-03-14T21:06:47.117Z,101321.02
2018-03-14T21:09:14.744Z,101319.77
2018-03-14T21:11:42.380Z,101321.14
2018-03-14T21:14:10.045Z,101319.89
2018-03-14T21:16:37.661Z,101325.92
2018-03-14T21:19:05.297Z,101320.42
2018-03-14T21:21:32.916Z,101326.89
2018-03-14T21:24:00.554Z,101320.86
2018-03-14T21:26:28.651Z,101326.86
2018-03-14T21:28:56.325Z,101320.45
2018-03-14T21:31:24.039Z,101321.77
2018-03-14T21:33:51.652Z,101323.11
2018-03-14T21:36:19.277Z,101319.70
2018-03-14T21:38:47.265Z,101316.19
2018-03-14T21:41:14.935Z,101320.45
2018-03-14T21:43:42.557Z,101314.38
2018-03-14T21:46:10.269Z,101319.98
2018-03-14T21:48:37.900Z,101322.14
2018-03-14T21:51:05.541Z,101312.75
2018-03-14T21:53:33.251Z,101319.57
2018-03-14T21:56:00.888Z,101311.91
2018-03-14T21:58:28.501Z,101311.44
2018-03-14T22:00:56.140Z,101311.37
2018-03-14T22:03:23.756Z,101313.16
2018-03-14T22:05:51.389Z,101311.00
2018-03-14T22:08:19.033Z,101315.31
2018-03-14T22:10:46.684Z,101306.69
2018-03-14T22:13:14.315Z,101306.69
2018-03-14T22:15:41.943Z,101300.63
2018-03-14T22:18:09.556Z,101303.97
2018-03-14T22:20:37.441Z,101296.65
2018-03-14T22:23:05.052Z,101293.59
2018-03-14T22:25:32.692Z,101295.59
2018-03-14T22:28:00.332Z,101291.19
2018-03-14T22:30:27.974Z,101297.91
2018-03-14T22:32:55.597Z,101287.59
2018-03-14T22:35:23.836Z,101293.50
2018-03-14T22:37:51.488Z,101288.78
2018-03-14T22:40:19.124Z,101283.63
2018-03-14T22:42:46.744Z,101286.09
2018-03-14T22:45:14.377Z,101283.41
2018-03-14T22:47:42.047Z,101282.13
2018-03-14T22:50:09.685Z,101280.78
2018-03-14T22:52:37.348Z,101278.56
2018-03-14T22:55:04.965Z,101277.69
2018-03-14T22:57:32.688Z,101269.56
2018-03-14T23:00:00.357Z,101274.22
2018-03-14T23:02:28.008Z,101271.56
2018-03-14T23:04:55.628Z,101267.59
2018-03-14T23:07:23.290Z,101272.69
2018-03-14T23:09:50.900Z,101271.81
2018-03-14T23:12:18.568Z,101265.34
2018-03-14T23:14:46.228Z,101264.91
2018-03-14T23:17:13.836Z,101269.62
2018-03-14T23:19:41.482Z,101267.97
2018-03-14T23:22:09.097Z,101261.62
2018-03-14T23:24:36.741Z,101263.02
2018-03-14T23:27:04.436Z,101263.15
2018-03-14T23:29:32.073Z,101261.02
2018-03-14T23:31:59.767Z,101259.70
2018-03-14T23:34:27.532Z,101263.58
2018-03-14T23:36:55.196Z,101258.45
2018-03-14T23:39:22.806Z,101258.11
2018-03-14T23:41:50.440Z,101255.14
2018-03-14T23:44:18.044Z,101253.42
2018-03-14T23:46:45.745Z,101255.92
2018-03-14T23:49:13.412Z,101256.89
2018-03-14T23:51:41.049Z,101252.26
2018-03-14T23:54:08.749Z,101253.02
2018-03-14T23:56:36.460Z,101249.51
2018-03-14T23:59:04.119Z,101249.45
